createdAt,value
2023-03-05T00:01:44.989Z,102109.41
2023-03-05T00:04:15.653Z,102103.78
2023-03-05T00:06:44.701Z,102101.63
2023-03-05T00:09:14.788Z,102099.94
2023-03-05T00:11:43.362Z,102099.28
2023-03-05T00:14:12.114Z,102094.63
2023-03-05T00:16:41.211Z,102084.31
2023-03-05T00:19:09.373Z,102078.69
2023-03-05T00:21:39.184Z,102069.47
2023-03-05T00:24:10.089Z,102072.88
2023-03-05T00:26:40.304Z,102077.31
2023-03-05T00:29:09.743Z,102070.34
2023-03-05T00:31:39.325Z,102068.19
2023-03-05T00:34:09.998Z,102068.75
2023-03-05T00:36:41.061Z,102058.25
2023-03-05T00:39:09.202Z,102059.22
2023-03-05T00:41:37.237Z,102054.09
2023-03-05T00:44:06.996Z,102060.06
2023-03-05T00:46:35.410Z,102054.78
2023-03-05T00:49:04.211Z,102056.88
2023-03-05T00:51:32.399Z,102052.44
2023-03-05T00:54:00.640Z,102051.91
2023-03-05T00:56:29.047Z,102049.63
2023-03-05T00:58:57.367Z,102039.84
2023-03-05T01:01:28.706Z,102038.91
2023-03-05T01:03:58.268Z,102043.22
2023-03-05T01:06:26.441Z,102033.16
2023-03-05T01:08:56.498Z,102029.81
2023-03-05T01:11:25.920Z,102037.28
2023-03-05T01:13:54.536Z,102037.59
2023-03-05T01:16:22.789Z,102039.47
2023-03-05T01:18:52.636Z,102036.81
2023-03-05T01:21:21.988Z,102032.84
2023-03-05T01:23:50.106Z,102030.97
2023-03-05T01:26:18.011Z,102031.28
2023-03-05T01:28:46.395Z,102017.94
2023-03-05T01:31:14.871Z,102021.94
2023-03-05T01:33:42.962Z,102014.34
2023-03-05T01:36:15.979Z,102006.31
2023-03-05T01:38:44.561Z,102006.41
2023-03-05T01:41:14.496Z,101994.69
2023-03-05T01:43:43.556Z,102000.38
2023-03-05T01:46:28.280Z,101989.28
2023-03-05T01:49:04.800Z,101988.41
2023-03-05T01:51:39.295Z,101985.44
2023-03-05T01:54:10.463Z,101988.16
2023-03-05T01:56:40.643Z,101987.28
2023-03-05T01:59:09.308Z,101986.44
2023-03-05T02:01:42.060Z,101980.28
2023-03-05T02:04:12.992Z,101968.13
2023-03-05T02:06:44.956Z,101969.34
2023-03-05T02:09:13.792Z,101959.97
2023-03-05T02:11:43.701Z,101959.75
2023-03-05T02:14:11.982Z,101954.25
2023-03-05T02:16:40.498Z,101946.88
2023-03-05T02:19:11.875Z,101942.78
2023-03-05T02:21:44.159Z,101939.22
2023-03-05T02:24:14.932Z,101942.09
2023-03-05T02:26:44.865Z,101932.47
2023-03-05T02:29:18.548Z,101922.66
2023-03-05T02:31:47.507Z,101928.56
2023-03-05T02:34:16.272Z,101925.75
2023-03-05T02:36:46.834Z,101926.41
2023-03-05T02:39:15.947Z,101917.84
2023-03-05T02:41:44.570Z,101920.00
2023-03-05T02:44:13.131Z,101910.78
2023-03-05T02:46:41.312Z,101911.66
2023-03-05T02:49:09.598Z,101914.03
2023-03-05T02:51:38.553Z,101911.56
2023-03-05T02:54:09.181Z,101907.88
2023-03-05T02:56:38.322Z,101901.31
2023-03-05T02:59:06.902Z,101902.44
2023-03-05T03:01:36.042Z,101902.28
2023-03-05T03:04:04.915Z,101912.28
2023-03-05T03:06:33.345Z,101908.03
2023-03-05T03:09:01.698Z,101907.16
2023-03-05T03:11:32.314Z,101900.69
2023-03-05T03:14:00.920Z,101903.06
2023-03-05T03:16:29.566Z,101892.97
2023-03-05T03:18:57.942Z,101891.56
2023-03-05T03:21:27.303Z,101881.25
2023-03-05T03:23:55.780Z,101878.97
2023-03-05T03:26:23.982Z,101878.66
2023-03-05T03:28:53.576Z,101868.16
2023-03-05T03:31:21.753Z,101874.44
2023-03-05T03:33:49.870Z,101865.34
2023-03-05T03:36:18.339Z,101863.56
2023-03-05T03:38:46.491Z,101858.38
2023-03-05T03:41:14.597Z,101853.81
2023-03-05T03:43:42.639Z,101841.56
2023-03-05T03:46:12.313Z,101857.00
2023-03-05T03:48:40.504Z,101873.22
2023-03-05T03:51:09.375Z,101867.34
2023-03-05T03:53:37.481Z,101855.06
2023-03-05T03:56:06.365Z,101843.94
2023-03-05T03:58:34.623Z,101844.81
2023-03-05T04:01:02.897Z,101846.44
2023-03-05T04:03:32.397Z,101844.56
2023-03-05T04:06:00.796Z,101842.78
2023-03-05T04:08:29.409Z,101840.72
2023-03-05T04:10:57.760Z,101834.00
2023-03-05T04:13:25.809Z,101827.78
2023-03-05T04:15:54.782Z,101827.75
2023-03-05T04:18:23.233Z,101832.47
2023-03-05T04:20:53.002Z,101815.47
2023-03-05T04:23:21.594Z,101821.66
2023-03-05T04:25:49.817Z,101818.47
2023-03-05T04:28:22.910Z,101816.75
2023-03-05T04:30:51.501Z,101818.06
2023-03-05T04:33:19.906Z,101815.94
2023-03-05T04:35:49.093Z,101805.03
2023-03-05T04:38:18.489Z,101806.22
2023-03-05T04:40:48.688Z,101804.13
2023-03-05T04:43:16.834Z,101806.34
2023-03-05T04:45:45.740Z,101798.66
2023-03-05T04:48:13.982Z,101798.00
2023-03-05T04:50:42.524Z,101797.28
2023-03-05T04:53:10.639Z,101796.84
2023-03-05T04:55:40.132Z,101797.91
2023-03-05T04:58:08.399Z,101789.78
2023-03-05T05:00:36.647Z,101792.13
2023-03-05T05:03:05.176Z,101796.44
2023-03-05T05:05:33.341Z,101787.91
2023-03-05T05:08:01.496Z,101795.06
2023-03-05T05:10:30.145Z,101798.81
2023-03-05T05:12:59.623Z,101784.88
2023-03-05T05:15:28.322Z,101785.75
2023-03-05T05:17:56.606Z,101789.06
2023-03-05T05:20:24.741Z,101780.72
2023-03-05T05:22:53.023Z,101795.56
2023-03-05T05:25:21.506Z,101792.53
2023-03-05T05:27:49.969Z,101786.88
2023-03-05T05:30:19.604Z,101786.00
2023-03-05T05:32:47.674Z,101783.94
2023-03-05T05:35:15.893Z,101787.44
2023-03-05T05:37:44.283Z,101783.53
2023-03-05T05:40:13.626Z,101779.09
2023-03-05T05:42:42.091Z,101776.38
2023-03-05T05:45:11.876Z,101778.03
2023-03-05T05:47:41.406Z,101774.78
2023-03-05T05:50:10.559Z,101767.22
2023-03-05T05:52:38.706Z,101767.53
2023-03-05T05:55:08.161Z,101771.34
2023-03-05T05:57:36.577Z,101766.44
2023-03-05T06:00:08.948Z,101764.69
2023-03-05T06:02:42.064Z,101764.94
2023-03-05T06:05:14.725Z,101757.13
2023-03-05T06:07:43.324Z,101760.22
2023-03-05T06:10:12.643Z,101763.78
2023-03-05T06:12:41.037Z,101759.09
2023-03-05T06:15:10.380Z,101759.13
2023-03-05T06:17:38.755Z,101765.97
2023-03-05T06:20:10.324Z,101761.78
2023-03-05T06:22:39.370Z,101758.53
2023-03-05T06:25:09.412Z,101759.97
2023-03-05T06:27:38.678Z,101762.03
2023-03-05T06:30:08.501Z,101760.75
2023-03-05T06:32:36.587Z,101751.31
2023-03-05T06:35:06.908Z,101762.66
2023-03-05T06:37:36.463Z,101755.84
2023-03-05T06:40:07.855Z,101756.47
2023-03-05T06:42:36.438Z,101751.47
2023-03-05T06:45:06.543Z,101750.78
2023-03-05T06:47:35.171Z,101752.81
2023-03-05T06:50:03.818Z,101754.66
2023-03-05T06:52:32.033Z,101752.97
2023-03-05T06:55:01.564Z,101758.00
2023-03-05T06:57:29.894Z,101754.72
2023-03-05T06:59:58.106Z,101753.47
2023-03-05T07:02:26.151Z,101753.88
2023-03-05T07:04:54.671Z,101748.97
2023-03-05T07:07:22.769Z,101756.00
2023-03-05T07:09:53.080Z,101753.41
2023-03-05T07:12:22.950Z,101745.06
2023-03-05T07:14:51.115Z,101746.56
2023-03-05T07:17:19.861Z,101750.63
2023-03-05T07:19:48.332Z,101744.00
2023-03-05T07:22:16.758Z,101739.28
2023-03-05T07:24:44.955Z,101742.22
2023-03-05T07:27:13.763Z,101738.88
2023-03-05T07:29:43.395Z,101741.81
2023-03-05T07:32:11.400Z,101739.13
2023-03-05T07:34:39.853Z,101745.59
2023-03-05T07:37:08.645Z,101744.78
2023-03-05T07:39:36.631Z,101740.00
2023-03-05T07:42:06.365Z,101735.31
2023-03-05T07:44:51.832Z,101731.06
2023-03-05T07:47:19.973Z,101733.72
2023-03-05T07:49:48.032Z,101717.88
2023-03-05T07:52:16.502Z,101724.78
2023-03-05T07:54:44.723Z,101723.94
2023-03-05T07:57:13.583Z,101729.00
2023-03-05T07:59:41.719Z,101722.50
2023-03-05T08:02:12.977Z,101718.44
2023-03-05T08:04:42.263Z,101715.00
2023-03-05T08:07:10.723Z,101710.81
2023-03-05T08:09:39.073Z,101723.97
2023-03-05T08:12:09.023Z,101714.69
2023-03-05T08:14:37.297Z,101718.63
2023-03-05T08:17:06.390Z,101714.47
2023-03-05T08:19:35.873Z,101715.22
2023-03-05T08:22:05.180Z,101715.34
2023-03-05T08:24:34.002Z,101711.91
2023-03-05T08:27:02.674Z,101718.38
2023-03-05T08:29:31.347Z,101712.94
2023-03-05T08:31:59.852Z,101719.78
2023-03-05T08:34:28.188Z,101714.66
2023-03-05T08:36:57.905Z,101704.56
2023-03-05T08:39:26.220Z,101705.72
2023-03-05T08:41:54.811Z,101698.34
2023-03-05T08:44:22.914Z,101696.50
2023-03-05T08:46:51.043Z,101691.81
2023-03-05T08:49:19.187Z,101695.97
2023-03-05T08:51:47.532Z,101699.13
2023-03-05T08:54:16.994Z,101689.06
2023-03-05T08:56:46.131Z,101683.66
2023-03-05T08:59:14.533Z,101685.81
2023-03-05T09:01:42.983Z,101692.25
2023-03-05T09:04:11.181Z,101691.56
2023-03-05T09:06:40.657Z,101702.19
2023-03-05T09:09:10.121Z,101700.69
2023-03-05T09:11:39.809Z,101689.81
2023-03-05T09:14:08.511Z,101691.75
2023-03-05T09:16:38.747Z,101675.19
2023-03-05T09:19:08.979Z,101663.72
2023-03-05T09:21:37.525Z,101673.72
2023-03-05T09:24:06.542Z,101670.44
2023-03-05T09:26:34.684Z,101675.47
2023-03-05T09:29:06.968Z,101662.47
2023-03-05T09:31:35.487Z,101661.38
2023-03-05T09:34:05.465Z,101669.59
2023-03-05T09:36:33.920Z,101659.09
2023-03-05T09:39:04.232Z,101662.50
2023-03-05T09:41:44.010Z,101659.31
2023-03-05T09:44:26.541Z,101654.94
2023-03-05T09:46:56.934Z,101651.47
2023-03-05T09:49:34.863Z,101651.34
2023-03-05T09:52:09.017Z,101647.91
2023-03-05T09:54:42.159Z,101649.00
2023-03-05T09:57:18.665Z,101648.78
2023-03-05T09:59:54.542Z,101637.22
2023-03-05T10:02:27.509Z,101641.63
2023-03-05T10:05:02.092Z,101635.22
2023-03-05T10:07:33.800Z,101633.03
2023-03-05T10:10:05.744Z,101632.50
2023-03-05T10:12:42.849Z,101640.66
2023-03-05T10:15:17.173Z,101629.44
2023-03-05T10:18:15.090Z,101632.88
2023-03-05T10:20:52.306Z,101629.44
2023-03-05T10:23:46.088Z,101625.88
2023-03-05T10:26:36.709Z,101623.16
2023-03-05T10:29:20.246Z,101619.72
2023-03-05T10:32:00.521Z,101623.28
2023-03-05T10:34:56.779Z,101615.75
2023-03-05T10:37:56.022Z,101624.19
2023-03-05T10:40:32.699Z,101619.22
2023-03-05T10:43:09.013Z,101611.09
2023-03-05T10:45:41.121Z,101611.31
2023-03-05T10:48:17.362Z,101605.56
2023-03-05T10:50:50.164Z,101605.44
2023-03-05T10:53:26.245Z,101602.22
2023-03-05T10:55:56.580Z,101590.78
2023-03-05T10:58:26.443Z,101589.50
2023-03-05T11:01:07.376Z,101584.94
2023-03-05T11:03:55.181Z,101570.16
2023-03-05T11:06:39.712Z,101569.97
2023-03-05T11:09:18.117Z,101577.50
2023-03-05T11:11:46.761Z,101565.63
2023-03-05T11:14:30.978Z,101568.06
2023-03-05T11:16:59.063Z,101570.09
2023-03-05T11:19:32.967Z,101542.56
2023-03-05T11:22:14.339Z,101556.06
2023-03-05T11:24:42.683Z,101554.75
2023-03-05T11:27:27.247Z,101543.38
2023-03-05T11:29:55.929Z,101540.53
2023-03-05T11:32:26.348Z,101540.34
2023-03-05T11:34:58.276Z,101530.34
2023-03-05T11:37:28.522Z,101537.97
2023-03-05T11:40:20.947Z,101528.59
2023-03-05T11:42:55.866Z,101531.84
2023-03-05T11:45:25.973Z,101537.03
2023-03-05T11:47:56.644Z,101529.56
2023-03-05T11:50:28.347Z,101524.81
2023-03-05T11:53:00.725Z,101530.13
2023-03-05T11:55:32.339Z,101518.31
2023-03-05T11:58:13.470Z,101509.91
2023-03-05T12:00:45.254Z,101511.94
2023-03-05T12:03:17.888Z,101514.09
2023-03-05T12:05:51.925Z,101504.94
2023-03-05T12:08:25.592Z,101489.38
2023-03-05T12:10:53.591Z,101488.00
2023-03-05T12:13:28.191Z,101484.06
2023-03-05T12:16:12.591Z,101482.16
2023-03-05T12:18:49.072Z,101475.31
2023-03-05T12:21:28.917Z,101466.41
2023-03-05T12:24:01.472Z,101473.78
2023-03-05T12:27:06.812Z,101469.84
2023-03-05T12:29:42.268Z,101473.91
2023-03-05T12:32:39.986Z,101467.00
2023-03-05T12:35:24.302Z,101459.84
2023-03-05T12:38:29.720Z,101470.25
2023-03-05T12:41:35.701Z,101450.53
2023-03-05T12:44:24.950Z,101445.25
2023-03-05T12:47:23.693Z,101450.91
2023-03-05T12:49:52.366Z,101445.06
2023-03-05T12:52:29.642Z,101444.19
2023-03-05T12:55:05.196Z,101443.03
2023-03-05T12:57:34.502Z,101440.88
2023-03-05T13:00:11.086Z,101435.53
2023-03-05T13:02:42.759Z,101432.06
2023-03-05T13:05:21.954Z,101414.72
2023-03-05T13:07:50.846Z,101407.94
2023-03-05T13:10:26.432Z,101402.91
2023-03-05T13:12:56.571Z,101412.34
2023-03-05T13:15:27.123Z,101405.88
2023-03-05T13:17:58.583Z,101393.09
2023-03-05T13:20:37.780Z,101407.25
2023-03-05T13:23:22.461Z,101403.69
2023-03-05T13:26:05.252Z,101399.00
2023-03-05T13:28:34.279Z,101382.69
2023-03-05T13:31:05.100Z,101394.47
2023-03-05T13:33:35.191Z,101394.47
2023-03-05T13:36:04.589Z,101382.13
2023-03-05T13:38:36.793Z,101370.50
2023-03-05T13:41:09.912Z,101374.91
2023-03-05T13:43:45.116Z,101371.59
2023-03-05T13:46:13.734Z,101377.34
2023-03-05T13:48:42.011Z,101366.38
2023-03-05T13:51:11.987Z,101362.16
2023-03-05T13:53:40.156Z,101355.66
2023-03-05T13:56:15.723Z,101359.34
2023-03-05T13:58:55.078Z,101344.91
2023-03-05T14:01:30.436Z,101342.63
2023-03-05T14:04:02.819Z,101349.66
2023-03-05T14:06:32.318Z,101343.22
2023-03-05T14:09:08.542Z,101341.63
2023-03-05T14:11:38.096Z,101342.19
2023-03-05T14:14:09.460Z,101341.31
2023-03-05T14:16:37.774Z,101329.78
2023-03-05T14:19:07.396Z,101334.38
2023-03-05T14:21:47.290Z,101328.19
2023-03-05T14:24:22.811Z,101330.78
2023-03-05T14:26:56.528Z,101335.34
2023-03-05T14:29:26.008Z,101309.94
2023-03-05T14:31:57.186Z,101323.53
2023-03-05T14:34:31.554Z,101309.34
2023-03-05T14:37:03.596Z,101308.56
2023-03-05T14:39:41.271Z,101306.63
2023-03-05T14:42:32.600Z,101297.94
2023-03-05T14:45:02.312Z,101295.09
2023-03-05T14:47:32.000Z,101283.66
2023-03-05T14:50:00.187Z,101289.09
2023-03-05T14:52:28.556Z,101285.06
2023-03-05T14:54:57.178Z,101284.31
2023-03-05T14:57:28.516Z,101283.84
2023-03-05T14:59:58.208Z,101291.47
2023-03-05T15:02:28.511Z,101277.78
2023-03-05T15:04:57.293Z,101269.09
2023-03-05T15:07:30.673Z,101276.50
2023-03-05T15:09:59.879Z,101267.13
2023-03-05T15:12:28.025Z,101270.84
2023-03-05T15:14:57.909Z,101258.47
2023-03-05T15:17:34.728Z,101259.16
2023-03-05T15:20:07.001Z,101256.09
2023-03-05T15:22:35.517Z,101256.34
2023-03-05T15:25:04.036Z,101256.31
2023-03-05T15:27:32.490Z,101248.00
2023-03-05T15:30:02.120Z,101245.69
2023-03-05T15:32:31.521Z,101245.38
2023-03-05T15:35:00.840Z,101253.00
2023-03-05T15:37:30.856Z,101267.50
2023-03-05T15:39:58.931Z,101266.75
2023-03-05T15:42:27.428Z,101257.41
2023-03-05T15:44:56.196Z,101251.72
2023-03-05T15:47:26.132Z,101243.94
2023-03-05T15:49:54.544Z,101231.88
2023-03-05T15:52:22.529Z,101226.19
2023-03-05T15:54:50.727Z,101222.66
2023-03-05T15:57:21.829Z,101223.81
2023-03-05T15:59:50.264Z,101222.00
2023-03-05T16:02:19.126Z,101217.91
2023-03-05T16:04:48.528Z,101216.94
2023-03-05T16:07:17.185Z,101213.34
2023-03-05T16:09:49.415Z,101205.13
2023-03-05T16:12:23.570Z,101202.78
2023-03-05T16:14:52.226Z,101202.19
2023-03-05T16:17:23.459Z,101203.88
2023-03-05T16:19:56.956Z,101194.56
2023-03-05T16:22:24.970Z,101195.31
2023-03-05T16:24:53.430Z,101190.78
2023-03-05T16:27:21.488Z,101191.53
2023-03-05T16:29:51.168Z,101170.56
2023-03-05T16:32:19.402Z,101181.34
2023-03-05T16:34:47.741Z,101176.09
2023-03-05T16:37:21.550Z,101177.31
2023-03-05T16:39:49.837Z,101165.88
2023-03-05T16:42:18.390Z,101168.88
2023-03-05T16:44:47.469Z,101170.94
2023-03-05T16:47:15.655Z,101164.50
2023-03-05T16:49:43.822Z,101170.19
2023-03-05T16:52:18.806Z,101180.09
2023-03-05T16:54:49.357Z,101162.78
2023-03-05T16:57:17.323Z,101162.66
2023-03-05T16:59:45.678Z,101160.28
2023-03-05T17:02:15.393Z,101156.53
2023-03-05T17:04:44.124Z,101147.41
2023-03-05T17:07:12.240Z,101150.78
2023-03-05T17:09:41.010Z,101143.19
2023-03-05T17:12:10.498Z,101143.59
2023-03-05T17:14:39.002Z,101153.09
2023-03-05T17:17:07.629Z,101138.84
2023-03-05T17:19:36.008Z,101143.50
2023-03-05T17:22:05.401Z,101136.84
2023-03-05T17:24:34.127Z,101134.09
2023-03-05T17:27:02.538Z,101134.22
2023-03-05T17:29:32.702Z,101130.47
2023-03-05T17:32:00.813Z,101124.84
2023-03-05T17:34:36.071Z,101120.09
2023-03-05T17:37:06.611Z,101126.97
2023-03-05T17:39:34.799Z,101126.25
2023-03-05T17:42:04.032Z,101128.41
2023-03-05T17:44:33.944Z,101138.69
2023-03-05T17:47:02.212Z,101134.34
2023-03-05T17:49:30.992Z,101133.56
2023-03-05T17:51:59.321Z,101123.66
2023-03-05T17:54:27.946Z,101132.19
2023-03-05T17:56:57.832Z,101134.63
2023-03-05T17:59:27.178Z,101124.41
2023-03-05T18:01:57.568Z,101125.31
2023-03-05T18:04:26.170Z,101119.69
2023-03-05T18:06:55.252Z,101126.34
2023-03-05T18:09:23.786Z,101130.03
2023-03-05T18:11:51.846Z,101122.66
2023-03-05T18:14:20.000Z,101112.91
2023-03-05T18:16:48.861Z,101115.53
2023-03-05T18:19:18.700Z,101104.38
2023-03-05T18:21:46.878Z,101113.25
2023-03-05T18:24:15.032Z,101102.88
2023-03-05T18:26:43.154Z,101103.19
2023-03-05T18:29:11.558Z,101102.63
2023-03-05T18:31:39.749Z,101094.97
2023-03-05T18:34:08.004Z,101094.25
2023-03-05T18:36:37.606Z,101081.59
2023-03-05T18:39:05.717Z,101079.38
2023-03-05T18:41:34.084Z,101073.03
2023-03-05T18:44:04.452Z,101071.81
2023-03-05T18:46:32.849Z,101076.59
2023-03-05T18:49:00.901Z,101064.22
2023-03-05T18:51:30.532Z,101066.31
2023-03-05T18:54:00.432Z,101058.81
2023-03-05T18:56:29.162Z,101053.13
2023-03-05T18:58:58.912Z,101044.63
2023-03-05T19:01:27.586Z,101039.88
2023-03-05T19:03:56.688Z,101053.38
2023-03-05T19:06:25.167Z,101047.63
2023-03-05T19:08:57.498Z,101048.50
2023-03-05T19:11:27.196Z,101044.06
2023-03-05T19:13:57.022Z,101048.66
2023-03-05T19:16:28.064Z,101040.94
2023-03-05T19:19:04.887Z,101029.41
2023-03-05T19:21:33.332Z,101038.56
2023-03-05T19:24:02.253Z,101030.69
2023-03-05T19:26:33.011Z,101028.84
2023-03-05T19:29:02.637Z,101019.00
2023-03-05T19:31:31.331Z,101015.75
2023-03-05T19:33:59.646Z,101014.28
2023-03-05T19:36:27.780Z,101002.72
2023-03-05T19:38:56.810Z,101005.13
2023-03-05T19:41:26.325Z,101006.66
2023-03-05T19:43:56.768Z,100998.88
2023-03-05T19:46:24.874Z,100997.72
2023-03-05T19:48:53.584Z,100997.28
2023-03-05T19:51:25.116Z,100997.91
2023-03-05T19:53:53.727Z,100985.97
2023-03-05T19:56:22.397Z,100991.47
2023-03-05T19:58:50.671Z,100989.31
2023-03-05T20:01:22.744Z,100992.19
2023-03-05T20:03:53.554Z,100982.50
2023-03-05T20:06:22.788Z,100991.59
2023-03-05T20:08:50.941Z,100979.22
2023-03-05T20:11:20.979Z,100979.84
2023-03-05T20:13:50.210Z,100977.00
2023-03-05T20:16:21.742Z,100970.59
2023-03-05T20:18:52.956Z,100960.03
2023-03-05T20:21:23.239Z,100958.03
2023-03-05T20:23:52.602Z,100963.63
2023-03-05T20:26:21.434Z,100970.34
2023-03-05T20:28:50.297Z,100958.75
2023-03-05T20:31:21.184Z,100948.56
2023-03-05T20:33:49.688Z,100938.81
2023-03-05T20:36:17.980Z,100940.81
2023-03-05T20:38:46.497Z,100946.19
2023-03-05T20:41:16.709Z,100939.22
2023-03-05T20:43:47.679Z,100937.88
2023-03-05T20:46:18.049Z,100933.50
2023-03-05T20:48:49.524Z,100936.53
2023-03-05T20:51:22.516Z,100931.38
2023-03-05T20:53:51.455Z,100936.94
2023-03-05T20:56:19.529Z,100920.66
2023-03-05T20:58:49.019Z,100914.47
2023-03-05T21:01:17.618Z,100914.16
2023-03-05T21:03:47.462Z,100905.41
2023-03-05T21:06:16.711Z,100900.50
2023-03-05T21:08:45.307Z,100910.44
2023-03-05T21:11:15.071Z,100912.72
2023-03-05T21:13:44.989Z,100899.22
2023-03-05T21:16:19.075Z,100892.06
2023-03-05T21:18:51.388Z,100888.94
2023-03-05T21:21:22.867Z,100888.75
2023-03-05T21:23:55.624Z,100880.03
2023-03-05T21:26:25.635Z,100884.13
2023-03-05T21:28:55.773Z,100874.19
2023-03-05T21:31:25.861Z,100873.25
2023-03-05T21:33:56.441Z,100870.09
2023-03-05T21:36:27.124Z,100865.16
2023-03-05T21:39:00.542Z,100857.84
2023-03-05T21:41:31.473Z,100859.94
2023-03-05T21:44:04.440Z,100864.00
2023-03-05T21:46:35.403Z,100859.63
2023-03-05T21:49:07.132Z,100860.16
2023-03-05T21:51:46.991Z,100853.69
2023-03-05T21:54:16.954Z,100862.00
2023-03-05T21:56:48.061Z,100849.91
2023-03-05T21:59:17.551Z,100836.69
2023-03-05T22:01:47.285Z,100835.69
2023-03-05T22:04:18.796Z,100832.81
2023-03-05T22:06:49.697Z,100836.91
2023-03-05T22:09:18.987Z,100824.13
2023-03-05T22:11:48.557Z,100831.91
2023-03-05T22:14:18.098Z,100831.09
2023-03-05T22:16:46.583Z,100831.69
2023-03-05T22:19:16.235Z,100830.53
2023-03-05T22:21:44.191Z,100818.53
2023-03-05T22:24:12.188Z,100805.94
2023-03-05T22:26:42.283Z,100804.56
2023-03-05T22:29:11.765Z,100802.16
2023-03-05T22:31:40.556Z,100793.47
2023-03-05T22:34:08.607Z,100799.44
2023-03-05T22:36:38.106Z,100804.50
2023-03-05T22:39:06.752Z,100795.84
2023-03-05T22:41:34.996Z,100798.13
2023-03-05T22:44:03.987Z,100798.97
2023-03-05T22:46:32.524Z,100789.88
2023-03-05T22:49:00.519Z,100802.84
2023-03-05T22:51:29.523Z,100795.00
2023-03-05T22:53:59.485Z,100796.63
2023-03-05T22:56:28.075Z,100793.81
2023-03-05T22:58:56.146Z,100797.31
2023-03-05T23:01:26.946Z,100777.28
2023-03-05T23:04:03.666Z,100773.47
2023-03-05T23:06:31.742Z,100772.91
2023-03-05T23:09:01.254Z,100761.81
2023-03-05T23:11:29.429Z,100774.44
2023-03-05T23:13:57.480Z,100765.34
2023-03-05T23:16:25.510Z,100765.47
2023-03-05T23:18:54.560Z,100767.50
2023-03-05T23:21:22.681Z,100754.25
2023-03-05T23:23:52.625Z,100747.13
2023-03-05T23:26:22.034Z,100749.41
2023-03-05T23:28:50.135Z,100751.53
2023-03-05T23:31:18.841Z,100752.13
2023-03-05T23:33:47.044Z,100748.66
2023-03-05T23:36:15.558Z,100744.41
2023-03-05T23:38:43.689Z,100738.59
2023-03-05T23:41:11.815Z,100738.59
2023-03-05T23:43:41.137Z,100737.56
2023-03-05T23:46:12.190Z,100742.44
2023-03-05T23:48:40.152Z,100737.25
2023-03-05T23:51:09.342Z,100734.72
2023-03-05T23:53:37.686Z,100726.63
2023-03-05T23:56:10.548Z,100726.28
2023-03-05T23:58:39.604Z,100722.69
